Aeroporto :
LOGIN :

Iscrizione | Disclaimer

   EN    FR    IT 

 










Sommario :    VFR   VFR Marginale   IFR   IFR Intensivo   IFR Molto Intensivo
Visibilità : 
Base nubi : 
>= 8 km
>= 3000ft
5 / 8 km
1000 / 3000 ft
1500m / 5 km
500 / 1000 ft
800 / 1500m
200 / 500 ft
< 800m
< 200 ft
Simboli :   Temporali  Nebbia  Neve Forte  Precipitazioni Forti  Vento > 20 kt
SIGMETs :   Varie  Temporali  Ghiacco  Turbolenza  Onda orograficha  Ceneri Vulcaniche






- Altitudine del aeroporto : 144 ft
- Codice IATA : PGF


LFMP - Perpignan

ULTIMO METAR :
  • 231200Z AUTO 07010KT 050V120 CAVOK 25/16 Q1011 NOSIG

METARs OBSOLETI :
  • 231130Z AUTO 12006KT 070V160 CAVOK 25/15 Q1011 NOSIG
  • 231100Z AUTO 12006KT 060V170 CAVOK 25/15 Q1011 NOSIG
  • 231030Z AUTO 09005KT 020V160 CAVOK 25/16 Q1011 NOSIG
  • 231000Z AUTO VRB03KT CAVOK 24/16 Q1011 NOSIG
  • 230930Z AUTO 14003KT 060V190 CAVOK 24/15 Q1011 NOSIG

TAF TAF LFMP
Valido dal 23 a 09 ore il 24 a 09 ore UTC


230800Z 2309/2409 VRB04KT CAVOK
TEMPO 2310/2317 11010KT
BECMG 2318/2320 BKN050
BECMG 2321/2323 32010KT
BECMG 2403/2405 VRB04KT
ATIS : +33 4 68 63 75 12



MetMap, La meteo Aeronautica in un colpo d'occhio ! - Copyright ORBIFLY Dicembre 2007 - Disclaimer

ORBIFLY MET'MAP TEAM :

Programmazione e sviluppo : Alexandra Zaïnal
Concezione : Baudouin d'Aumeries
Aiuto per la programmazione : Marc-Olivier Méhu
Supporto tecnico e logistico : Manuel Goepfert
Aiuto per la traduzione : Arnaldo La Scala

Contatto : metmap@orbifly.com




FONTI E CREDITI :

   NOAA